createdAt,value
2022-09-30T00:01:56.746Z,4.43
2022-09-30T00:04:26.916Z,5.60
2022-09-30T00:06:55.955Z,6.30
2022-09-30T00:09:24.602Z,5.17
2022-09-30T00:11:53.781Z,6.53
2022-09-30T00:14:25.036Z,4.50
2022-09-30T00:16:54.312Z,5.90
2022-09-30T00:19:22.807Z,5.73
2022-09-30T00:21:52.675Z,5.50
2022-09-30T00:24:21.116Z,7.43
2022-09-30T00:26:49.705Z,6.40
2022-09-30T00:29:18.212Z,6.43
2022-09-30T00:31:46.874Z,7.80
2022-09-30T00:34:15.391Z,10.30
2022-09-30T00:36:46.376Z,11.90
2022-09-30T00:39:20.095Z,11.90
2022-09-30T00:41:53.473Z,11.23
2022-09-30T00:44:53.347Z,10.70
2022-09-30T00:47:54.925Z,12.13
2022-09-30T00:50:37.272Z,6.60
2022-09-30T00:53:13.095Z,10.20
2022-09-30T00:55:51.524Z,10.00
2022-09-30T00:58:29.331Z,6.77
2022-09-30T01:01:01.601Z,6.83
2022-09-30T01:03:32.998Z,6.07
2022-09-30T01:06:01.619Z,6.30
2022-09-30T01:08:34.839Z,7.20
2022-09-30T01:11:08.198Z,7.60
2022-09-30T01:13:41.310Z,8.57
2022-09-30T01:16:33.893Z,7.23
2022-09-30T01:19:42.879Z,8.30
2022-09-30T01:22:25.759Z,10.30
2022-09-30T01:25:34.963Z,7.77
2022-09-30T01:28:46.868Z,7.83
2022-09-30T01:31:43.175Z,8.53
2022-09-30T01:34:24.320Z,10.90
2022-09-30T01:37:07.921Z,8.73
2022-09-30T01:39:51.624Z,10.73
2022-09-30T01:42:29.271Z,12.50
2022-09-30T01:45:07.843Z,10.20
2022-09-30T01:47:48.703Z,11.30
2022-09-30T01:50:22.969Z,9.73
2022-09-30T01:53:03.661Z,11.53
2022-09-30T01:55:39.980Z,10.70
2022-09-30T01:58:18.845Z,10.10
2022-09-30T02:00:54.751Z,8.27
2022-09-30T02:03:31.764Z,12.20
2022-09-30T02:06:08.469Z,11.03
2022-09-30T02:08:45.210Z,9.47
2022-09-30T02:11:19.449Z,12.80
2022-09-30T02:13:55.198Z,11.03
2022-09-30T02:16:30.448Z,11.77
2022-09-30T02:19:13.404Z,8.97
2022-09-30T02:21:46.867Z,9.77
2022-09-30T02:24:21.190Z,10.00
2022-09-30T02:26:54.739Z,11.90
2022-09-30T02:29:30.651Z,12.23
2022-09-30T02:32:16.342Z,12.30
2022-09-30T02:34:51.562Z,9.80
2022-09-30T02:37:29.291Z,8.33
2022-09-30T02:40:07.752Z,10.83
2022-09-30T02:42:36.334Z,8.67
2022-09-30T02:45:10.177Z,9.20
2022-09-30T02:47:56.325Z,8.50
2022-09-30T02:50:33.339Z,12.63
2022-09-30T02:53:19.575Z,6.93
2022-09-30T02:56:13.557Z,6.60
2022-09-30T02:58:44.006Z,8.20
2022-09-30T03:01:16.782Z,9.23
2022-09-30T03:03:50.770Z,5.57
2022-09-30T03:06:21.230Z,9.13
2022-09-30T03:08:49.934Z,6.57
2022-09-30T03:11:22.539Z,6.43
2022-09-30T03:14:40.903Z,6.73
2022-09-30T03:17:31.172Z,5.53
2022-09-30T03:20:27.962Z,6.57
2022-09-30T03:23:22.667Z,5.97
2022-09-30T03:26:04.182Z,5.53
2022-09-30T03:28:39.993Z,6.83
2022-09-30T03:31:23.184Z,5.20
2022-09-30T03:34:00.500Z,5.60
2022-09-30T03:36:41.723Z,8.93
2022-09-30T03:39:26.722Z,7.63
2022-09-30T03:42:04.130Z,9.03
2022-09-30T03:44:41.893Z,10.70
2022-09-30T03:47:14.753Z,9.87
2022-09-30T03:49:50.455Z,8.67
2022-09-30T03:52:20.383Z,9.10
2022-09-30T03:54:58.709Z,5.30
2022-09-30T03:57:29.338Z,6.90
2022-09-30T03:59:58.707Z,6.50
2022-09-30T04:02:29.364Z,6.77
2022-09-30T04:04:59.047Z,7.13
2022-09-30T04:07:27.923Z,11.77
2022-09-30T04:09:57.688Z,6.23
2022-09-30T04:12:26.420Z,5.43
2022-09-30T04:14:54.820Z,9.20
2022-09-30T04:17:23.577Z,8.57
2022-09-30T04:19:51.993Z,11.03
2022-09-30T04:22:25.528Z,8.40
2022-09-30T04:24:54.774Z,8.67
2022-09-30T04:27:24.549Z,8.70
2022-09-30T04:29:53.138Z,10.13
2022-09-30T04:32:23.175Z,8.43
2022-09-30T04:34:51.542Z,10.03
2022-09-30T04:37:19.921Z,10.60
2022-09-30T04:39:48.827Z,12.47
2022-09-30T04:42:18.298Z,13.40
2022-09-30T04:44:48.835Z,13.17
2022-09-30T04:47:17.237Z,11.63
2022-09-30T04:49:46.693Z,10.63
2022-09-30T04:52:15.379Z,12.53
2022-09-30T04:54:43.799Z,13.97
2022-09-30T04:57:12.213Z,12.33
2022-09-30T04:59:40.701Z,13.93
2022-09-30T05:02:12.798Z,14.90
2022-09-30T05:04:41.217Z,12.03
2022-09-30T05:07:09.748Z,10.93
2022-09-30T05:09:38.423Z,8.70
2022-09-30T05:12:08.185Z,11.97
2022-09-30T05:14:36.681Z,9.90
2022-09-30T05:17:05.379Z,10.90
2022-09-30T05:19:35.248Z,9.20
2022-09-30T05:22:03.695Z,8.27
2022-09-30T05:24:32.093Z,8.10
2022-09-30T05:27:00.608Z,9.37
2022-09-30T05:29:29.630Z,11.23
2022-09-30T05:31:58.409Z,11.17
2022-09-30T05:34:27.248Z,8.93
2022-09-30T05:36:57.116Z,9.67
2022-09-30T05:39:25.545Z,10.97
2022-09-30T05:41:53.990Z,8.37
2022-09-30T05:44:22.405Z,7.73
2022-09-30T05:46:50.946Z,6.70
2022-09-30T05:49:19.789Z,5.10
2022-09-30T05:51:48.735Z,5.13
2022-09-30T05:54:18.486Z,8.67
2022-09-30T05:56:46.940Z,19.93
2022-09-30T05:59:15.451Z,13.43
2022-09-30T06:01:43.928Z,15.07
2022-09-30T06:04:13.058Z,12.37
2022-09-30T06:06:41.601Z,16.27
2022-09-30T06:09:10.095Z,4.73
2022-09-30T06:11:42.530Z,6.43
2022-09-30T06:14:10.929Z,8.43
2022-09-30T06:16:40.966Z,4.57
2022-09-30T06:19:10.062Z,8.33
2022-09-30T06:21:39.957Z,7.57
2022-09-30T06:24:13.037Z,11.07
2022-09-30T06:26:43.409Z,7.87
2022-09-30T06:29:12.481Z,9.37
2022-09-30T06:31:41.283Z,9.03
2022-09-30T06:34:10.409Z,7.37
2022-09-30T06:36:39.391Z,9.17
2022-09-30T06:39:13.413Z,6.93
2022-09-30T06:41:44.166Z,4.57
2022-09-30T06:44:15.593Z,5.57
2022-09-30T06:46:52.974Z,2.87
2022-09-30T06:49:22.990Z,4.23
2022-09-30T06:51:52.064Z,2.90
2022-09-30T06:54:21.833Z,4.40
2022-09-30T06:56:52.945Z,4.80
2022-09-30T06:59:22.171Z,2.63
2022-09-30T07:01:50.761Z,3.63
2022-09-30T07:04:20.187Z,6.50
2022-09-30T07:06:49.139Z,3.37
2022-09-30T07:09:17.969Z,4.60
2022-09-30T07:11:46.444Z,2.93
2022-09-30T07:14:16.308Z,2.83
2022-09-30T07:16:45.330Z,4.90
2022-09-30T07:19:14.611Z,3.57
2022-09-30T07:21:43.023Z,2.63
2022-09-30T07:24:11.608Z,3.20
2022-09-30T07:26:40.691Z,2.37
2022-09-30T07:29:09.506Z,2.40
2022-09-30T07:31:39.823Z,2.27
2022-09-30T07:34:11.094Z,3.07
2022-09-30T07:36:42.560Z,3.33
2022-09-30T07:39:12.231Z,2.70
2022-09-30T07:41:45.094Z,2.93
2022-09-30T07:44:15.278Z,3.30
2022-09-30T07:46:46.107Z,3.50
2022-09-30T07:49:24.381Z,2.83
2022-09-30T07:51:55.552Z,4.07
2022-09-30T07:54:27.917Z,4.93
2022-09-30T07:57:09.898Z,2.30
2022-09-30T07:59:42.502Z,1.30
2022-09-30T08:02:18.363Z,2.63
2022-09-30T08:04:47.138Z,2.80
2022-09-30T08:07:18.802Z,3.30
2022-09-30T08:09:47.314Z,2.33
2022-09-30T08:12:15.758Z,1.40
2022-09-30T08:14:44.772Z,1.60
2022-09-30T08:17:14.930Z,2.87
2022-09-30T08:19:44.682Z,2.43
2022-09-30T08:22:13.852Z,2.07
2022-09-30T08:24:42.562Z,1.80
2022-09-30T08:27:11.003Z,2.10
2022-09-30T08:29:57.331Z,2.20
2022-09-30T08:32:31.561Z,2.10
2022-09-30T08:35:00.001Z,2.33
2022-09-30T08:37:29.311Z,1.90
2022-09-30T08:39:57.844Z,1.87
2022-09-30T08:42:52.935Z,2.23
2022-09-30T08:45:40.639Z,1.80
2022-09-30T08:48:36.342Z,1.70
2022-09-30T08:51:24.868Z,2.53
2022-09-30T08:53:55.637Z,1.50
2022-09-30T08:56:29.120Z,1.80
2022-09-30T08:59:06.374Z,1.47
2022-09-30T09:01:39.206Z,1.40
2022-09-30T09:04:09.857Z,1.80
2022-09-30T09:06:55.108Z,2.33
2022-09-30T09:09:44.557Z,4.13
2022-09-30T09:12:34.950Z,3.53
2022-09-30T09:15:23.732Z,2.60
2022-09-30T09:18:23.579Z,1.50
2022-09-30T09:20:58.698Z,1.87
2022-09-30T09:23:31.768Z,3.97
2022-09-30T09:26:00.437Z,1.30
2022-09-30T09:28:41.163Z,1.97
2022-09-30T09:31:17.178Z,2.33
2022-09-30T09:33:47.165Z,1.60
2022-09-30T09:36:39.137Z,1.47
2022-09-30T09:39:35.283Z,2.70
2022-09-30T09:42:22.472Z,1.27
2022-09-30T09:45:01.460Z,1.37
2022-09-30T09:47:29.932Z,1.50
2022-09-30T09:50:03.986Z,1.40
2022-09-30T09:53:16.390Z,1.90
2022-09-30T09:55:45.476Z,3.50
2022-09-30T09:58:17.318Z,3.00
2022-09-30T10:01:07.527Z,1.87
2022-09-30T10:03:38.128Z,1.37
2022-09-30T10:06:09.166Z,1.23
2022-09-30T10:08:53.042Z,2.07
2022-09-30T10:11:24.987Z,1.60
2022-09-30T10:13:58.881Z,1.50
2022-09-30T10:16:32.898Z,1.97
2022-09-30T10:19:05.989Z,0.83
2022-09-30T10:21:37.657Z,1.53
2022-09-30T10:24:27.621Z,1.40
2022-09-30T10:26:57.189Z,1.93
2022-09-30T10:29:29.662Z,1.43
2022-09-30T10:32:00.142Z,2.30
2022-09-30T10:34:33.095Z,1.10
2022-09-30T10:37:09.812Z,0.80
2022-09-30T10:39:43.388Z,2.30
2022-09-30T10:42:25.751Z,0.97
2022-09-30T10:44:58.703Z,2.33
2022-09-30T10:47:36.305Z,1.93
2022-09-30T10:50:10.265Z,1.10
2022-09-30T10:52:47.977Z,1.03
2022-09-30T10:55:32.432Z,1.23
2022-09-30T10:58:29.233Z,1.50
2022-09-30T11:01:07.910Z,1.00
2022-09-30T11:03:45.494Z,1.47
2022-09-30T11:06:16.059Z,1.40
2022-09-30T11:08:56.353Z,1.33
2022-09-30T11:11:38.216Z,4.83
2022-09-30T11:14:27.878Z,2.13
2022-09-30T11:17:11.008Z,1.80
2022-09-30T11:19:50.078Z,1.43
2022-09-30T11:22:38.546Z,1.20
2022-09-30T11:25:11.300Z,1.80
2022-09-30T11:27:59.129Z,3.33
2022-09-30T11:30:37.495Z,1.90
2022-09-30T11:33:27.280Z,1.83
2022-09-30T11:36:05.606Z,2.27
2022-09-30T11:39:06.673Z,2.53
2022-09-30T11:41:41.494Z,1.20
2022-09-30T11:44:31.913Z,1.33
2022-09-30T11:47:33.479Z,1.13
2022-09-30T11:50:45.676Z,1.70
2022-09-30T11:53:28.630Z,1.73
2022-09-30T11:56:26.358Z,1.10
2022-09-30T11:59:01.857Z,1.70
2022-09-30T12:01:38.103Z,1.90
2022-09-30T12:04:14.657Z,1.37
2022-09-30T12:06:51.673Z,3.30
2022-09-30T12:09:26.347Z,2.33
2022-09-30T12:12:02.133Z,3.07
2022-09-30T12:14:37.213Z,2.00
2022-09-30T12:17:19.889Z,3.07
2022-09-30T12:19:53.185Z,2.17
2022-09-30T12:22:30.007Z,1.87
2022-09-30T12:24:58.951Z,1.00
2022-09-30T12:27:38.943Z,1.23
2022-09-30T12:30:19.148Z,1.20
2022-09-30T12:33:26.841Z,1.13
2022-09-30T12:36:36.851Z,5.70
2022-09-30T12:39:56.460Z,1.43
2022-09-30T12:42:56.088Z,2.23
2022-09-30T12:46:15.487Z,2.43
2022-09-30T12:48:51.832Z,2.90
2022-09-30T12:51:28.227Z,1.87
2022-09-30T12:54:05.113Z,1.43
2022-09-30T12:56:37.568Z,2.47
2022-09-30T12:59:07.209Z,1.40
2022-09-30T13:01:39.481Z,1.70
2022-09-30T13:04:31.788Z,2.13
2022-09-30T13:07:19.645Z,1.67
2022-09-30T13:10:01.875Z,2.30
2022-09-30T13:12:43.815Z,1.20
2022-09-30T13:15:41.725Z,3.80
2022-09-30T13:19:00.877Z,3.03
2022-09-30T13:21:32.249Z,2.20
2022-09-30T13:24:01.850Z,2.27
2022-09-30T13:27:08.324Z,2.53
2022-09-30T13:29:39.980Z,1.40
2022-09-30T13:32:12.129Z,3.40
2022-09-30T13:34:58.230Z,2.03
2022-09-30T13:37:40.498Z,2.87
2022-09-30T13:40:37.535Z,1.30
2022-09-30T13:43:21.054Z,1.60
2022-09-30T13:45:54.208Z,1.83
2022-09-30T13:48:30.005Z,1.97
2022-09-30T13:51:05.087Z,3.50
2022-09-30T13:53:41.013Z,2.33
2022-09-30T13:56:25.047Z,2.10
2022-09-30T13:59:26.667Z,1.50
2022-09-30T14:02:41.401Z,1.90
2022-09-30T14:06:02.985Z,2.57
2022-09-30T14:09:20.398Z,2.60
2022-09-30T14:12:13.533Z,2.57
2022-09-30T14:15:22.265Z,1.80
2022-09-30T14:18:24.816Z,2.33
2022-09-30T14:21:31.811Z,3.57
2022-09-30T14:24:05.051Z,1.63
2022-09-30T14:27:25.717Z,2.37
2022-09-30T14:30:06.916Z,1.80
2022-09-30T14:32:46.120Z,2.50
2022-09-30T14:35:20.679Z,1.57
2022-09-30T14:37:55.005Z,1.67
2022-09-30T14:40:29.134Z,2.13
2022-09-30T14:43:04.867Z,1.90
2022-09-30T14:45:38.827Z,1.90
2022-09-30T14:48:11.652Z,1.90
2022-09-30T14:50:48.627Z,4.60
2022-09-30T14:53:29.718Z,2.43
2022-09-30T14:55:59.422Z,1.50
2022-09-30T14:58:31.635Z,1.13
2022-09-30T15:01:08.662Z,1.87
2022-09-30T15:03:41.990Z,0.93
2022-09-30T15:06:21.509Z,1.40
2022-09-30T15:08:52.376Z,2.63
2022-09-30T15:11:24.075Z,2.93
2022-09-30T15:14:03.900Z,3.07
2022-09-30T15:16:34.696Z,3.70
2022-09-30T15:19:03.527Z,2.20
2022-09-30T15:21:34.814Z,1.97
2022-09-30T15:24:03.968Z,2.40
2022-09-30T15:26:34.523Z,5.70
2022-09-30T15:29:07.000Z,1.30
2022-09-30T15:31:35.940Z,2.10
2022-09-30T15:34:07.921Z,2.40
2022-09-30T15:36:38.529Z,2.73
2022-09-30T15:39:21.003Z,1.40
2022-09-30T15:41:50.748Z,2.23
2022-09-30T15:44:39.941Z,4.80
2022-09-30T15:47:11.501Z,2.10
2022-09-30T15:49:49.769Z,2.07
2022-09-30T15:52:33.419Z,3.40
2022-09-30T15:55:02.017Z,4.30
2022-09-30T15:57:51.265Z,1.93
2022-09-30T16:00:42.714Z,5.53
2022-09-30T16:03:35.144Z,3.27
2022-09-30T16:06:10.936Z,3.27
2022-09-30T16:08:45.895Z,2.90
2022-09-30T16:11:26.456Z,3.03
2022-09-30T16:13:57.035Z,1.70
2022-09-30T16:16:31.502Z,2.23
2022-09-30T16:19:03.295Z,3.27
2022-09-30T16:21:45.054Z,3.67
2022-09-30T16:24:48.939Z,2.70
2022-09-30T16:27:27.440Z,2.60
2022-09-30T16:29:55.817Z,3.13
2022-09-30T16:32:28.991Z,7.17
2022-09-30T16:34:58.685Z,5.73
2022-09-30T16:37:27.826Z,6.73
2022-09-30T16:40:00.308Z,5.93
2022-09-30T16:42:30.199Z,6.73
2022-09-30T16:45:00.949Z,6.83
2022-09-30T16:47:30.953Z,6.23
2022-09-30T16:49:59.563Z,5.00
2022-09-30T16:52:27.908Z,5.40
2022-09-30T16:54:56.621Z,10.90
2022-09-30T16:57:25.336Z,12.53
2022-09-30T16:59:54.117Z,10.00
2022-09-30T17:02:22.707Z,11.67
2022-09-30T17:04:52.878Z,40.60
2022-09-30T17:07:21.278Z,22.53
2022-09-30T17:09:49.683Z,12.57
2022-09-30T17:12:18.396Z,11.93
2022-09-30T17:14:46.794Z,11.30
2022-09-30T17:17:15.184Z,9.57
2022-09-30T17:19:43.948Z,10.03
2022-09-30T17:22:14.075Z,8.87
2022-09-30T17:24:42.475Z,9.17
2022-09-30T17:27:10.845Z,8.03
2022-09-30T17:29:41.996Z,8.20
2022-09-30T17:32:11.151Z,7.80
2022-09-30T17:34:40.304Z,9.90
2022-09-30T17:37:09.337Z,6.90
2022-09-30T17:39:40.206Z,8.57
2022-09-30T17:42:32.153Z,10.97
2022-09-30T17:45:01.240Z,9.93
2022-09-30T17:47:29.943Z,9.53
2022-09-30T17:49:59.601Z,12.30
2022-09-30T17:52:28.026Z,13.67
2022-09-30T17:54:58.067Z,12.27
2022-09-30T17:57:26.581Z,17.43
2022-09-30T17:59:57.139Z,13.63
2022-09-30T18:02:25.616Z,13.83
2022-09-30T18:04:54.335Z,16.00
2022-09-30T18:07:25.467Z,16.80
2022-09-30T18:09:53.842Z,15.43
2022-09-30T18:12:23.902Z,17.00
2022-09-30T18:14:53.403Z,15.90
2022-09-30T18:17:21.977Z,21.20
2022-09-30T18:19:50.447Z,23.23
2022-09-30T18:22:19.427Z,26.13
2022-09-30T18:25:05.540Z,19.40
2022-09-30T18:27:35.295Z,19.07
2022-09-30T18:30:06.269Z,14.20
2022-09-30T18:32:34.823Z,13.53
2022-09-30T18:35:06.858Z,10.87
2022-09-30T18:37:35.273Z,10.33
2022-09-30T18:40:03.681Z,11.67
2022-09-30T18:42:32.385Z,9.23
2022-09-30T18:45:02.319Z,8.93
2022-09-30T18:47:32.677Z,11.37
2022-09-30T18:50:01.049Z,26.27
2022-09-30T18:52:29.499Z,19.43
2022-09-30T18:54:58.251Z,11.87
2022-09-30T18:57:26.617Z,9.87
2022-09-30T18:59:55.125Z,9.60
2022-09-30T19:02:27.141Z,11.90
2022-09-30T19:04:59.965Z,11.80
2022-09-30T19:07:29.121Z,14.30
2022-09-30T19:09:57.493Z,11.10
2022-09-30T19:12:27.455Z,12.80
2022-09-30T19:14:55.839Z,9.10
2022-09-30T19:17:26.270Z,12.30
2022-09-30T19:19:54.700Z,11.33
2022-09-30T19:22:24.863Z,11.80
2022-09-30T19:24:53.322Z,15.10
2022-09-30T19:27:23.302Z,14.93
2022-09-30T19:29:55.010Z,17.27
2022-09-30T19:32:34.314Z,11.20
2022-09-30T19:35:06.399Z,7.63
2022-09-30T19:37:35.330Z,8.27
2022-09-30T19:40:20.057Z,10.53
2022-09-30T19:42:51.170Z,7.93
2022-09-30T19:45:24.350Z,8.37
2022-09-30T19:47:55.387Z,10.93
2022-09-30T19:50:24.071Z,7.17
2022-09-30T19:52:57.414Z,8.77
2022-09-30T19:55:26.672Z,8.30
2022-09-30T19:57:55.162Z,7.67
2022-09-30T20:00:24.085Z,4.37
2022-09-30T20:02:52.624Z,8.70
2022-09-30T20:05:23.581Z,23.57
2022-09-30T20:07:53.385Z,23.37
2022-09-30T20:10:21.805Z,25.17
2022-09-30T20:12:50.177Z,22.97
2022-09-30T20:15:37.405Z,18.50
2022-09-30T20:18:06.100Z,19.33
2022-09-30T20:20:36.815Z,20.53
2022-09-30T20:23:05.368Z,15.97
2022-09-30T20:25:36.250Z,18.13
2022-09-30T20:28:05.565Z,16.17
2022-09-30T20:30:38.095Z,17.40
2022-09-30T20:33:06.977Z,16.30
2022-09-30T20:35:37.490Z,13.70
2022-09-30T20:38:06.740Z,13.53
2022-09-30T20:40:35.217Z,14.57
2022-09-30T20:43:04.079Z,20.23
2022-09-30T20:45:32.528Z,17.63
2022-09-30T20:48:01.427Z,14.00
2022-09-30T20:50:36.103Z,17.43
2022-09-30T20:53:09.732Z,14.00
2022-09-30T20:55:41.129Z,16.73
2022-09-30T20:58:10.867Z,19.00
2022-09-30T21:00:41.858Z,28.13
2022-09-30T21:03:13.969Z,32.67
2022-09-30T21:05:51.567Z,26.10
2022-09-30T21:08:21.311Z,28.77
2022-09-30T21:10:50.393Z,29.43
2022-09-30T21:13:19.755Z,35.70
2022-09-30T21:15:48.411Z,28.03
2022-09-30T21:18:16.801Z,23.73
2022-09-30T21:20:45.229Z,21.27
2022-09-30T21:23:18.397Z,16.97
2022-09-30T21:25:48.988Z,16.90
2022-09-30T21:28:17.466Z,14.30
2022-09-30T21:30:46.245Z,12.73
2022-09-30T21:33:14.639Z,14.43
2022-09-30T21:35:43.010Z,11.13
2022-09-30T21:38:12.427Z,19.43
2022-09-30T21:40:40.824Z,23.73
2022-09-30T21:43:10.872Z,27.60
2022-09-30T21:45:40.160Z,23.03
2022-09-30T21:48:10.104Z,20.43
2022-09-30T21:50:39.268Z,21.80
2022-09-30T21:53:07.677Z,18.63
2022-09-30T21:55:36.116Z,19.43
2022-09-30T21:58:04.843Z,20.13
2022-09-30T22:00:34.622Z,21.30
2022-09-30T22:03:02.999Z,21.10
2022-09-30T22:05:32.466Z,16.47
2022-09-30T22:08:01.431Z,18.83
2022-09-30T22:10:29.870Z,14.47
2022-09-30T22:12:58.738Z,12.03
2022-09-30T22:15:27.856Z,13.03
2022-09-30T22:17:57.604Z,10.10
2022-09-30T22:20:26.094Z,9.50
2022-09-30T22:22:55.026Z,7.93
2022-09-30T22:25:24.147Z,7.20
2022-09-30T22:27:52.616Z,9.83
2022-09-30T22:30:21.087Z,41.00
2022-09-30T22:33:09.767Z,35.63
2022-09-30T22:35:57.341Z,32.80
2022-09-30T22:38:25.833Z,17.70
2022-09-30T22:40:55.548Z,15.93
2022-09-30T22:43:24.491Z,24.40
2022-09-30T22:46:02.925Z,5.63
2022-09-30T22:48:32.715Z,3.43
2022-09-30T22:51:02.922Z,5.60
2022-09-30T22:53:31.448Z,20.37
2022-09-30T22:56:05.519Z,31.93
2022-09-30T22:58:36.745Z,24.03
2022-09-30T23:01:05.449Z,23.27
2022-09-30T23:03:34.733Z,16.13
2022-09-30T23:06:06.230Z,17.60
2022-09-30T23:08:41.585Z,20.00
2022-09-30T23:11:11.203Z,17.67
2022-09-30T23:13:41.582Z,37.33
2022-09-30T23:16:11.825Z,41.53
2022-09-30T23:18:40.803Z,39.43
2022-09-30T23:21:13.682Z,25.30
2022-09-30T23:23:42.702Z,18.57
2022-09-30T23:26:15.031Z,14.67
2022-09-30T23:28:44.063Z,12.20
2022-09-30T23:31:15.578Z,24.90
2022-09-30T23:33:49.484Z,24.17
2022-09-30T23:36:26.909Z,21.90
2022-09-30T23:38:55.401Z,12.53
2022-09-30T23:41:23.819Z,12.93
2022-09-30T23:43:52.335Z,10.93
2022-09-30T23:46:20.755Z,7.03
2022-09-30T23:48:49.747Z,4.83
2022-09-30T23:51:19.773Z,3.70
2022-09-30T23:53:48.542Z,5.37
2022-09-30T23:56:19.452Z,5.27
2022-09-30T23:58:48.497Z,6.90
